Time;durP1;ratioP1;P1;durP2;ratioP2;P2;SDS_P1;SDS_P2;PMS_P1;PMS_P2;Temp;Humidity;BMP_temperature;BMP_pressure;BME280_temperature;BME280_humidity;BME280_pressure;Samples;Min_cycle;Max_cycle;Signal;HPM_P1;HPM_P2
2022/05/06 00:00:24;;;;;;;8.13;4.47;;;;;;;11.88;63.34;97841.63;5118871;28;20196;-81
2022/05/06 00:02:52;;;;;;;5.30;3.80;;;;;;;11.77;63.87;97838.56;5118700;28;20185;-82
2022/05/06 00:05:20;;;;;;;6.03;3.70;;;;;;;11.73;63.99;97837.00;5100580;28;20188;-82
2022/05/06 00:07:47;;;;;;;7.33;4.17;;;;;;;11.73;64.40;97844.78;5119123;28;20204;-82
2022/05/06 00:10:15;;;;;;;6.70;3.80;;;;;;;11.75;64.96;97849.00;5119155;28;20189;-82
2022/05/06 00:12:42;;;;;;;5.77;3.90;;;;;;;11.48;66.22;97824.06;5118647;28;20189;-82
2022/05/06 00:15:11;;;;;;;6.03;3.60;;;;;;;11.73;66.42;97857.75;5118412;28;20190;-82
2022/05/06 00:17:39;;;;;;;4.97;3.80;;;;;;;11.83;65.01;97851.34;5122046;28;20219;-82
2022/05/06 00:20:06;;;;;;;8.57;4.80;;;;;;;11.43;64.53;97813.03;5128736;28;20190;-83
2022/05/06 00:22:35;;;;;;;6.10;3.83;;;;;;;11.30;65.94;97846.31;5140291;27;20188;-83
2022/05/06 00:25:02;;;;;;;3.97;3.43;;;;;;;11.20;66.63;97841.53;5118952;28;20212;-82
2022/05/06 00:27:31;;;;;;;4.07;3.27;;;;;;;11.12;66.99;97839.22;5116580;28;20202;-81
2022/05/06 00:29:58;;;;;;;5.57;3.57;;;;;;;10.77;68.01;97841.31;5131650;28;20194;-82
2022/05/06 00:32:30;;;;;;;5.13;3.10;;;;;;;10.87;67.13;97835.75;5118854;28;20184;-82
2022/05/06 00:34:57;;;;;;;5.40;3.80;;;;;;;10.93;66.41;97832.97;5116179;28;20193;-82
2022/05/06 00:37:24;;;;;;;4.50;3.53;;;;;;;10.62;66.43;97796.03;5101511;28;20190;-82
2022/05/06 00:39:53;;;;;;;6.17;3.10;;;;;;;10.77;65.20;97824.03;5104828;28;20306;-81
2022/05/06 00:42:22;;;;;;;4.17;3.00;;;;;;;10.82;66.79;97840.25;5113104;28;20192;-82
2022/05/06 00:44:49;;;;;;;5.27;3.43;;;;;;;10.84;66.87;97837.63;5098705;28;20190;-82
2022/05/06 00:47:22;;;;;;;5.93;3.47;;;;;;;10.94;67.16;97832.03;5113189;28;20192;-82
2022/05/06 00:49:52;;;;;;;6.93;3.50;;;;;;;11.12;66.00;97836.63;5102859;28;20181;-82
2022/05/06 00:52:19;;;;;;;4.17;3.33;;;;;;;11.22;65.88;97840.56;5119864;28;20205;-82
2022/05/06 00:54:48;;;;;;;5.50;3.23;;;;;;;11.35;65.18;97846.16;5121679;28;20197;-83
2022/05/06 00:57:15;;;;;;;5.00;3.17;;;;;;;11.41;66.04;97840.75;5122736;28;20171;-82
2022/05/06 01:02:29;;;;;;;7.30;4.70;;;;;;;11.41;64.96;97833.84;5121750;28;20168;-82
2022/05/06 01:05:03;;;;;;;6.40;3.80;;;;;;;11.33;64.91;97833.22;5122522;28;20186;-82
2022/05/06 01:07:30;;;;;;;4.33;3.33;;;;;;;11.32;65.95;97836.75;5122509;28;20200;-81
2022/05/06 01:09:57;;;;;;;5.67;3.37;;;;;;;11.18;66.38;97823.44;5122685;27;20228;-83
2022/05/06 01:12:25;;;;;;;4.40;3.40;;;;;;;10.97;67.35;97825.91;5122548;27;20191;-83
2022/05/06 01:14:52;;;;;;;6.00;3.40;;;;;;;10.72;67.74;97828.50;5140269;27;20208;-82
2022/05/06 01:17:29;;;;;;;9.97;4.00;;;;;;;10.76;67.33;97811.13;5122403;28;20199;-82
2022/05/06 01:19:56;;;;;;;4.33;3.60;;;;;;;10.79;67.47;97836.91;5141208;27;20222;-83
2022/05/06 01:22:26;;;;;;;6.40;3.93;;;;;;;10.69;68.09;97826.03;5105525;28;20185;-81
2022/05/06 01:24:53;;;;;;;6.83;4.70;;;;;;;10.73;67.54;97830.22;5139290;27;20189;-82
2022/05/06 01:27:26;;;;;;;11.97;4.73;;;;;;;10.42;68.35;97834.72;5121618;27;20507;-82
2022/05/06 01:29:56;;;;;;;7.37;4.20;;;;;;;9.98;69.45;97814.50;5139888;27;20243;-82
2022/05/06 01:32:25;;;;;;;8.87;4.97;;;;;;;9.85;70.42;97825.25;5139361;27;20186;-82
2022/05/06 01:34:55;;;;;;;6.97;4.90;;;;;;;9.57;71.44;97828.69;5121893;27;20203;-82
2022/05/06 01:37:25;;;;;;;6.83;4.07;;;;;;;9.43;72.19;97826.53;5121695;27;20192;-81
2022/05/06 01:40:01;;;;;;;5.63;4.03;;;;;;;9.23;72.75;97828.81;5121113;28;20211;-82
2022/05/06 01:42:37;;;;;;;4.63;3.87;;;;;;;9.08;72.69;97807.72;5121678;27;20231;-81
2022/05/06 01:45:10;;;;;;;5.40;4.20;;;;;;;9.00;73.16;97801.00;5121193;27;20170;-81
2022/05/06 01:47:41;;;;;;;4.70;3.70;;;;;;;9.30;72.68;97812.25;5121352;28;20188;-82
2022/05/06 01:50:13;;;;;;;9.90;4.77;;;;;;;9.17;73.52;97803.13;5121508;27;20176;-81
2022/05/06 01:52:56;;;;;;;6.07;4.60;;;;;;;9.15;74.86;97812.66;5104916;27;20211;-82
2022/05/06 01:55:44;;;;;;;4.83;4.20;;;;;;;8.92;75.82;97797.78;5104293;27;20184;-82
2022/05/06 01:58:32;;;;;;;5.97;4.27;;;;;;;9.16;75.38;97803.19;5121539;27;20241;-82
2022/05/06 02:01:18;;;;;;;5.77;4.47;;;;;;;9.27;76.08;97812.34;5106495;27;20183;-82
2022/05/06 02:07:06;;;;;;;6.90;4.30;;;;;;;9.42;76.67;97803.28;5126243;27;20184;-82
2022/05/06 02:09:48;;;;;;;5.60;4.50;;;;;;;9.48;76.24;97810.88;5094976;27;20179;-81
2022/05/06 02:12:38;;;;;;;6.73;4.10;;;;;;;9.49;74.79;97777.22;5094829;27;20188;-82
2022/05/06 02:15:33;;;;;;;5.30;4.43;;;;;;;9.69;73.79;97776.59;5105097;27;20168;-82
2022/05/06 02:18:47;;;;;;;8.80;4.53;;;;;;;9.98;72.90;97788.63;5093928;27;20223;-83
2022/05/06 02:21:51;;;;;;;7.93;4.60;;;;;;;10.02;72.27;97805.75;5090044;28;20188;-81
2022/05/06 02:24:55;;;;;;;8.43;4.33;;;;;;;9.75;73.32;97774.69;5119403;27;20180;-82
2022/05/06 02:28:07;;;;;;;9.77;4.70;;;;;;;9.78;73.88;97791.84;5135284;27;20207;-82
2022/05/06 02:34:02;;;;;;;6.27;4.17;;;;;;;9.53;74.50;97807.25;5119932;27;20195;-82
2022/05/06 02:36:49;;;;;;;8.73;5.07;;;;;;;9.49;74.51;97790.16;5106365;28;20196;-82
2022/05/06 02:39:45;;;;;;;11.87;5.40;;;;;;;9.41;74.37;97781.78;5107999;28;20238;-82
2022/05/06 02:42:28;;;;;;;8.90;5.37;;;;;;;9.37;75.34;97806.03;5094760;28;20176;-82
2022/05/06 02:45:10;;;;;;;7.67;5.53;;;;;;;9.05;76.46;97775.06;5106202;27;20188;-79
2022/05/06 02:47:57;;;;;;;8.07;5.33;;;;;;;8.89;77.40;97787.56;5120381;28;20550;-81
2022/05/06 02:50:42;;;;;;;10.23;5.83;;;;;;;8.74;78.73;97792.28;5138330;27;20171;-82
2022/05/06 02:53:33;;;;;;;6.73;5.30;;;;;;;8.61;79.65;97789.19;5107460;27;20179;-82
2022/05/06 02:56:17;;;;;;;7.47;5.40;;;;;;;8.69;79.66;97804.47;5106003;27;20241;-82
2022/05/06 02:59:04;;;;;;;10.13;5.70;;;;;;;8.30;80.06;97769.34;5120904;28;20245;-82
2022/05/06 03:01:48;;;;;;;6.93;5.60;;;;;;;8.56;80.55;97800.50;5089812;28;20210;-82
2022/05/06 03:04:30;;;;;;;8.07;6.00;;;;;;;8.36;80.30;97775.22;5087862;27;20212;-82
2022/05/06 03:07:16;;;;;;;8.07;5.40;;;;;;;8.46;79.52;97780.97;5107570;27;20175;-83
2022/05/06 03:09:58;;;;;;;9.10;5.83;;;;;;;8.65;79.58;97802.84;5123959;27;20212;-83
2022/05/06 03:12:48;;;;;;;6.73;5.70;;;;;;;8.87;78.68;97814.31;5120177;28;20207;-82
2022/05/06 03:15:31;;;;;;;9.53;6.50;;;;;;;8.63;79.11;97794.31;5103517;28;20188;-82
2022/05/06 03:18:15;;;;;;;6.33;5.33;;;;;;;8.70;78.74;97822.50;5096733;28;20709;-82
2022/05/06 03:20:58;;;;;;;13.77;6.00;;;;;;;8.79;78.90;97834.31;5073694;28;20203;-82
2022/05/06 03:23:44;;;;;;;7.23;5.63;;;;;;;9.11;78.69;97825.72;5098135;28;20211;-82
2022/05/06 03:26:16;;;;;;;7.23;5.57;;;;;;;9.35;76.98;97817.28;5087702;28;20194;-82
2022/05/06 03:29:02;;;;;;;7.43;5.40;;;;;;;9.41;76.80;97823.13;5090531;28;20229;-83
2022/05/06 03:31:31;;;;;;;10.47;5.87;;;;;;;9.62;75.80;97819.91;5074646;28;20199;-83
2022/05/06 03:34:07;;;;;;;8.40;5.30;;;;;;;9.81;74.77;97826.22;5103153;28;20279;-82
2022/05/06 03:36:48;;;;;;;7.67;5.43;;;;;;;10.04;72.79;97820.34;5078360;28;20188;-82
2022/05/06 03:39:22;;;;;;;6.80;5.13;;;;;;;9.93;73.22;97831.94;5072133;28;20234;-84
2022/05/06 03:42:10;;;;;;;7.07;4.83;;;;;;;9.54;74.28;97824.44;5102180;28;20263;-83
2022/05/06 03:44:42;;;;;;;8.27;5.03;;;;;;;9.60;74.64;97839.78;5103682;28;20184;-82
2022/05/06 03:47:20;;;;;;;6.13;5.20;;;;;;;9.76;73.91;97835.88;5082771;28;20267;-83
2022/05/06 03:53:20;;;;;;;6.33;4.37;;;;;;;10.72;70.56;97857.00;5100327;28;20211;-83
2022/05/06 03:55:58;;;;;;;7.23;4.40;;;;;;;10.52;70.76;97829.19;5065412;28;20208;-83
2022/05/06 03:58:44;;;;;;;6.87;4.60;;;;;;;10.58;70.79;97856.59;5082758;28;20232;-83
2022/05/06 04:01:27;;;;;;;7.33;4.73;;;;;;;10.47;71.16;97844.00;5055991;28;20248;-82
2022/05/06 04:04:16;;;;;;;7.80;4.73;;;;;;;10.27;72.35;97861.94;5066338;28;20204;-84
2022/05/06 04:07:09;;;;;;;5.87;4.13;;;;;;;10.22;72.17;97847.44;5072442;28;20259;-83
2022/05/06 04:09:52;;;;;;;7.20;4.60;;;;;;;10.48;71.61;97865.56;5055380;28;20192;-82
2022/05/06 04:12:36;;;;;;;5.50;4.60;;;;;;;10.55;71.03;97870.50;5062399;28;20192;-82
2022/05/06 04:15:18;;;;;;;7.13;5.00;;;;;;;10.54;70.49;97857.59;5085357;28;20197;-83
2022/05/06 04:18:06;;;;;;;5.57;4.40;;;;;;;10.46;70.12;97847.50;5082616;28;20229;-82
2022/05/06 04:24:00;;;;;;;5.97;4.40;;;;;;;11.12;68.70;97846.97;5091102;28;20180;-82
2022/05/06 04:26:40;;;;;;;7.30;5.53;;;;;;;11.40;66.66;97841.66;5086153;28;20195;-81
2022/05/06 04:29:14;;;;;;;6.70;4.70;;;;;;;11.93;65.84;97847.50;5070946;28;20225;-82
2022/05/06 04:32:01;;;;;;;9.70;4.70;;;;;;;12.16;64.89;97840.47;5068365;28;20189;-82
2022/05/06 04:34:50;;;;;;;7.07;5.20;;;;;;;12.82;63.28;97847.31;5083305;28;20257;-83
2022/05/06 04:37:50;;;;;;;8.40;6.23;;;;;;;13.16;61.82;97840.72;5073495;28;20185;-82
2022/05/06 04:40:34;;;;;;;9.10;4.93;;;;;;;13.40;61.67;97863.03;5067629;28;20624;-81
2022/05/06 04:43:25;;;;;;;5.23;4.73;;;;;;;13.10;61.90;97866.97;5066529;28;20230;-82
2022/05/06 04:50:21;;;;;;;7.63;5.50;;;;;;;13.33;61.43;97839.09;5091701;28;20697;-81
2022/05/06 04:53:07;;;;;;;5.27;4.77;;;;;;;13.56;60.98;97851.91;5081874;28;20234;-81
2022/05/06 04:56:07;;;;;;;8.30;5.67;;;;;;;13.63;61.73;97836.84;5108534;28;20224;-83
2022/05/06 04:58:39;;;;;;;9.03;4.83;;;;;;;13.49;61.29;97852.25;5064284;28;20228;-82
2022/05/06 05:01:31;;;;;;;8.00;5.30;;;;;;;13.44;61.39;97828.16;5102776;28;20178;-83
2022/05/06 05:04:12;;;;;;;5.43;4.27;;;;;;;13.68;61.45;97840.09;5066932;28;20252;-83
2022/05/06 05:07:00;;;;;;;6.57;4.20;;;;;;;14.03;61.43;97851.50;5076703;28;20288;-83
2022/05/06 05:09:52;;;;;;;4.30;3.70;;;;;;;13.85;59.55;97833.19;5081752;28;20219;-83
2022/05/06 05:12:24;;;;;;;7.50;4.20;;;;;;;14.01;59.84;97872.41;5077190;28;20192;-83
2022/05/06 05:15:04;;;;;;;6.63;4.30;;;;;;;14.06;61.34;97873.03;5079065;28;20208;-82
2022/05/06 05:17:54;;;;;;;4.83;3.70;;;;;;;14.32;59.31;97838.81;5077502;28;20240;-83
2022/05/06 05:20:21;;;;;;;6.73;4.53;;;;;;;14.68;59.28;97860.50;5094582;28;20212;-84
2022/05/06 05:22:49;;;;;;;5.17;4.07;;;;;;;14.93;58.67;97856.69;5041730;28;20203;-88
2022/05/06 05:25:17;;;;;;;6.63;4.60;;;;;;;14.93;59.04;97877.53;5093417;28;20219;-92
2022/05/06 05:27:45;;;;;;;9.10;4.60;;;;;;;15.01;58.35;97849.31;5092565;28;20188;-87
2022/05/06 05:30:24;;;;;;;5.17;4.33;;;;;;;14.97;56.96;97837.34;5083686;28;20191;-83
2022/05/06 05:32:51;;;;;;;6.80;4.70;;;;;;;15.19;57.34;97864.88;5086960;28;20228;-86
2022/05/06 05:35:19;;;;;;;7.83;5.10;;;;;;;15.05;57.67;97861.28;5087460;28;20205;-85
2022/05/06 05:37:54;;;;;;;8.87;6.17;;;;;;;15.38;56.81;97851.72;5110534;28;20180;-88
2022/05/06 05:40:24;;;;;;;8.30;5.10;;;;;;;15.30;56.65;97791.25;5076337;28;20245;-84
2022/05/06 05:42:53;;;;;;;8.23;4.83;;;;;;;15.78;56.12;97851.38;5101345;28;20222;-85
2022/05/06 05:48:19;;;;;;;5.40;4.23;;;;;;;16.02;55.36;97863.09;5105604;28;20188;-93
2022/05/06 05:50:51;;;;;;;10.27;4.53;;;;;;;15.99;54.93;97865.88;5093755;28;20179;-90
2022/05/06 05:53:25;;;;;;;10.97;5.30;;;;;;;15.64;56.05;97868.69;5104428;28;20191;-89
2022/05/06 05:55:56;;;;;;;9.07;4.80;;;;;;;15.18;57.09;97867.56;5100252;28;20184;-91
2022/05/06 05:58:25;;;;;;;4.90;4.40;;;;;;;14.86;57.85;97863.97;5098324;28;20202;-85
2022/05/06 06:00:56;;;;;;;10.93;4.30;;;;;;;15.00;57.30;97838.03;5095328;28;20180;-90
2022/05/06 06:03:31;;;;;;;9.53;4.97;;;;;;;15.24;56.98;97815.06;5098801;28;20222;-90
2022/05/06 06:06:02;;;;;;;8.50;4.67;;;;;;;15.70;57.04;97843.09;5116637;28;20184;-83
2022/05/06 06:08:29;;;;;;;6.57;4.90;;;;;;;15.42;58.99;97855.88;5108180;28;20241;-82
2022/05/06 06:11:03;;;;;;;9.13;5.67;;;;;;;15.85;58.57;97855.31;5105435;28;20190;-83
2022/05/06 06:13:36;;;;;;;7.13;4.97;;;;;;;16.21;55.50;97839.41;5102930;28;20616;-94
2022/05/06 06:16:05;;;;;;;6.87;4.43;;;;;;;16.44;55.22;97859.06;5100460;28;20180;-94
2022/05/06 06:18:33;;;;;;;5.87;4.23;;;;;;;16.30;55.03;97867.63;5118222;28;20223;-91
2022/05/06 06:21:01;;;;;;;5.97;4.37;;;;;;;16.40;55.37;97847.06;5098995;28;20192;-89
2022/05/06 06:23:30;;;;;;;8.00;4.63;;;;;;;16.42;55.29;97855.69;5100290;28;20176;-95
2022/05/06 06:25:59;;;;;;;8.60;5.23;;;;;;;16.49;55.38;97872.69;5105206;28;20201;-88
2022/05/06 06:28:28;;;;;;;7.37;4.03;;;;;;;16.41;53.08;97851.34;5094951;28;20223;-84
2022/05/06 06:30:56;;;;;;;6.47;4.27;;;;;;;16.71;53.04;97868.00;5095835;28;20206;-93
2022/05/06 06:33:26;;;;;;;8.47;4.73;;;;;;;16.78;52.85;97853.59;5062444;28;20648;-85
2022/05/06 06:35:55;;;;;;;7.90;4.87;;;;;;;17.03;52.27;97830.31;5078710;28;20181;-92
2022/05/06 06:38:31;;;;;;;5.13;4.57;;;;;;;17.39;52.40;97859.59;5059203;28;20197;-84
2022/05/06 06:41:00;;;;;;;9.90;4.50;;;;;;;17.36;50.41;97835.34;5073724;28;20461;-87
2022/05/06 06:43:29;;;;;;;5.87;4.23;;;;;;;17.22;49.67;97833.56;5093219;28;20196;-86
2022/05/06 06:46:19;;;;;;;5.60;4.93;;;;;;;17.40;49.96;97829.81;5086484;28;20250;-92
2022/05/06 06:48:53;;;;;;;6.27;4.20;;;;;;;17.62;51.21;97830.22;5093396;28;20214;-90
2022/05/06 06:51:28;;;;;;;8.93;4.70;;;;;;;17.67;49.74;97851.75;5073815;28;20202;-94
2022/05/06 06:53:55;;;;;;;6.83;4.13;;;;;;;17.41;50.33;97842.00;5095860;28;20284;-89
2022/05/06 06:56:42;;;;;;;7.13;4.37;;;;;;;16.98;51.79;97827.16;5101646;28;20206;-88
2022/05/06 06:59:29;;;;;;;6.40;4.60;;;;;;;17.24;51.70;97846.53;5082012;28;20235;-85
2022/05/06 07:02:16;;;;;;;5.40;4.50;;;;;;;17.30;48.35;97852.25;5088015;28;20224;-85
2022/05/06 07:05:12;;;;;;;5.73;4.30;;;;;;;17.34;48.36;97855.53;5101480;28;20208;-96
2022/05/06 07:14:08;;;;;;;8.43;4.17;;;;;;;17.19;49.26;97859.91;5106813;28;20261;-83
2022/05/06 07:16:54;;;;;;;8.33;4.17;;;;;;;17.29;48.94;97849.75;5122932;28;20500;-88
2022/05/06 07:19:40;;;;;;;9.90;5.67;;;;;;;17.52;49.01;97841.34;5119899;28;20605;-86
2022/05/06 07:22:26;;;;;;;8.57;4.60;;;;;;;17.85;48.36;97837.53;5103203;28;20244;-89
2022/05/06 07:25:14;;;;;;;6.47;4.23;;;;;;;18.14;47.69;97846.19;5125754;28;20257;-84
2022/05/06 07:27:43;;;;;;;8.03;4.10;;;;;;;18.39;47.52;97848.09;5121466;28;20197;-83
2022/05/06 07:30:29;;;;;;;7.00;4.43;;;;;;;18.31;47.45;97842.50;5130793;28;20253;-84
2022/05/06 07:33:16;;;;;;;8.67;4.43;;;;;;;18.07;47.48;97836.19;5128295;28;20217;-83
2022/05/06 07:35:44;;;;;;;8.37;4.30;;;;;;;18.07;48.08;97847.53;5131426;28;20193;-84
2022/05/06 07:38:11;;;;;;;6.73;5.60;;;;;;;18.24;47.72;97830.69;5126156;28;20186;-85
2022/05/06 07:40:43;;;;;;;6.07;5.47;;;;;;;18.56;46.97;97835.63;5129703;28;20389;-84
2022/05/06 07:43:30;;;;;;;6.30;4.80;;;;;;;18.80;46.85;97841.03;5129646;28;20273;-85
2022/05/06 07:46:23;;;;;;;5.90;4.40;;;;;;;18.91;46.90;97848.19;5114415;28;20189;-85
2022/05/06 07:49:14;;;;;;;5.83;5.03;;;;;;;18.93;46.06;97849.78;5128660;28;20212;-83
2022/05/06 07:52:02;;;;;;;8.13;4.50;;;;;;;18.95;45.74;97836.56;5129037;28;20196;-85
2022/05/06 07:54:36;;;;;;;13.03;6.03;;;;;;;19.13;45.61;97836.16;5111735;28;20265;-84
2022/05/06 07:57:38;;;;;;;9.30;6.20;;;;;;;19.20;45.50;97845.31;5103824;28;20229;-85
2022/05/06 08:00:29;;;;;;;7.43;6.07;;;;;;;19.41;44.10;97854.38;5134794;28;20287;-85
2022/05/06 08:07:07;;;;;;;7.00;5.40;;;;;;;19.37;44.11;97839.78;5032280;28;20205;-85
2022/05/06 08:09:35;;;;;;;5.77;4.13;;;;;;;19.59;42.86;97843.56;5030986;28;20198;-84
2022/05/06 08:12:22;;;;;;;7.63;4.77;;;;;;;19.34;41.78;97784.84;5093048;28;20291;-84
2022/05/06 08:15:09;;;;;;;7.07;4.27;;;;;;;19.20;41.58;97808.56;5125952;28;20202;-85
2022/05/06 08:17:55;;;;;;;8.37;4.60;;;;;;;19.30;41.03;97851.63;5116780;28;20284;-85
2022/05/06 08:20:44;;;;;;;4.70;3.47;;;;;;;18.76;42.18;97854.44;5118050;28;20233;-83
2022/05/06 08:23:31;;;;;;;8.97;4.27;;;;;;;18.56;42.83;97830.38;5131738;28;20220;-85
2022/05/06 08:25:58;;;;;;;12.60;5.63;;;;;;;18.97;41.10;97822.38;5131150;28;20187;-85
2022/05/06 08:28:44;;;;;;;9.23;4.27;;;;;;;19.08;39.13;97833.00;5131270;28;20683;-84
2022/05/06 08:31:11;;;;;;;7.47;4.13;;;;;;;19.05;40.97;97842.88;5116828;28;20190;-84
2022/05/06 08:34:08;;;;;;;4.67;4.13;;;;;;;19.17;41.60;97816.63;5119178;28;20205;-83
2022/05/06 08:36:57;;;;;;;4.73;3.13;;;;;;;19.07;41.35;97796.34;5133126;28;20198;-85
2022/05/06 08:39:25;;;;;;;6.70;3.60;;;;;;;19.11;41.28;97839.81;5131337;28;20212;-85
2022/05/06 08:41:54;;;;;;;4.90;3.70;;;;;;;19.13;41.39;97841.41;5134783;28;20250;-85
2022/05/06 08:53:32;;;;;;;6.43;4.20;;;;;;;19.13;39.86;97816.94;5118644;28;20275;-85
2022/05/06 08:56:18;;;;;;;6.00;4.20;;;;;;;19.57;40.16;97829.69;5094330;28;20291;-84
2022/05/06 08:59:09;;;;;;;6.23;3.90;;;;;;;19.63;40.89;97811.72;5119179;28;20255;-84
2022/05/06 09:01:56;;;;;;;5.57;4.37;;;;;;;19.34;40.93;97726.22;5098676;28;20207;-84
2022/05/06 09:04:56;;;;;;;7.47;3.23;;;;;;;19.83;40.92;97791.91;5111793;28;20219;-84
2022/05/06 09:07:58;;;;;;;4.47;3.77;;;;;;;19.68;40.22;97821.91;5113134;28;20242;-84
2022/05/06 09:10:58;;;;;;;7.03;3.80;;;;;;;19.72;41.32;97823.38;5114263;28;20236;-84
2022/05/06 09:13:27;;;;;;;6.30;4.40;;;;;;;19.73;40.73;97793.50;5084066;28;20180;-84
2022/05/06 09:16:42;;;;;;;6.57;3.73;;;;;;;19.23;43.82;97829.34;5099602;28;20213;-85
2022/05/06 09:19:22;;;;;;;7.53;3.80;;;;;;;19.31;42.83;97820.94;5096418;28;20239;-84
2022/05/06 09:22:14;;;;;;;6.67;4.33;;;;;;;19.83;41.56;97812.94;5077023;28;20219;-84
2022/05/06 09:24:44;;;;;;;7.13;3.70;;;;;;;20.25;40.92;97820.44;5078876;28;20193;-85
2022/05/06 09:27:16;;;;;;;7.40;4.23;;;;;;;20.28;40.20;97792.13;5108131;28;20634;-86
2022/05/06 09:29:50;;;;;;;6.77;4.87;;;;;;;20.09;39.57;97804.06;5108464;28;20189;-84
2022/05/06 09:32:28;;;;;;;10.93;4.90;;;;;;;20.12;39.92;97795.94;5109105;28;20176;-86
2022/05/06 09:35:20;;;;;;;8.93;3.60;;;;;;;20.00;39.30;97794.19;5111744;28;20199;-83
2022/05/06 09:38:03;;;;;;;9.80;4.33;;;;;;;19.79;39.74;97796.56;5094924;28;20740;-86
2022/05/06 09:40:33;;;;;;;4.27;3.10;;;;;;;19.98;40.09;97798.72;5091398;28;20244;-85
2022/05/06 09:43:02;;;;;;;4.63;3.37;;;;;;;20.29;39.30;97803.50;5109921;28;20192;-84
2022/05/06 09:46:15;;;;;;;4.00;3.37;;;;;;;19.94;39.92;97784.97;5106315;28;20196;-89
2022/05/06 09:49:43;;;;;;;4.27;2.90;;;;;;;20.03;38.94;97800.06;5073097;28;20211;-86
2022/05/06 09:53:05;;;;;;;4.23;3.00;;;;;;;20.35;38.83;97797.78;5090372;28;20203;-90
2022/05/06 09:56:26;;;;;;;8.70;5.30;;;;;;;20.39;38.64;97801.88;5105940;28;20246;-90
2022/05/06 09:59:51;;;;;;;7.50;3.40;;;;;;;20.58;38.87;97796.09;5091352;28;20201;-90
2022/05/06 10:03:14;;;;;;;4.80;3.03;;;;;;;19.78;40.12;97765.13;5106337;28;20185;-87
2022/05/06 10:06:35;;;;;;;4.03;3.40;;;;;;;20.00;39.37;97786.31;5082652;28;20224;-88
2022/05/06 10:10:01;;;;;;;3.40;3.10;;;;;;;20.13;39.32;97773.97;5099047;28;20197;-91
2022/05/06 10:13:22;;;;;;;5.93;4.07;;;;;;;20.61;38.69;97764.31;5096376;28;20188;-90
2022/05/06 10:16:44;;;;;;;6.73;3.70;;;;;;;21.03;37.73;97771.63;5105429;28;20554;-93
2022/05/06 10:19:41;;;;;;;10.87;4.40;;;;;;;21.08;38.04;97770.31;5043534;28;20285;-91
2022/05/06 10:23:18;;;;;;;4.00;2.77;;;;;;;20.35;38.19;97768.84;5067497;28;20183;-87
2022/05/06 10:26:34;;;;;;;6.33;3.00;;;;;;;20.59;38.22;97761.75;5061290;28;20293;-84
2022/05/06 10:33:16;;;;;;;5.17;2.63;;;;;;;20.99;38.25;97755.19;5067345;28;20190;-83
2022/05/06 10:36:36;;;;;;;4.33;3.17;;;;;;;20.81;38.67;97759.19;5082459;28;20188;-84
2022/05/06 10:40:15;;;;;;;5.40;3.20;;;;;;;20.43;39.02;97732.28;5053515;28;20209;-90
2022/05/06 10:43:34;;;;;;;6.90;3.73;;;;;;;20.58;38.80;97754.00;5057458;28;20199;-94
2022/05/06 10:47:16;;;;;;;3.77;3.13;;;;;;;21.08;37.89;97726.50;5056645;28;20213;-94
2022/05/06 10:50:37;;;;;;;4.40;2.70;;;;;;;21.58;36.64;97739.19;5065495;28;20198;-85
2022/05/06 10:54:08;;;;;;;6.87;4.20;;;;;;;21.72;37.00;97736.34;5064565;28;20203;-86
2022/05/06 10:57:30;;;;;;;5.17;4.17;;;;;;;21.31;37.39;97731.66;5062502;28;20196;-86
2022/05/06 11:00:50;;;;;;;5.27;2.97;;;;;;;21.26;37.13;97731.19;5046389;28;20350;-85
2022/05/06 11:04:14;;;;;;;11.33;4.13;;;;;;;20.97;38.22;97719.38;5057724;28;20200;-85
2022/05/06 11:07:37;;;;;;;3.53;3.20;;;;;;;20.94;37.51;97724.88;5054442;28;20273;-85
2022/05/06 11:10:59;;;;;;;4.07;3.30;;;;;;;21.05;36.37;97722.31;5070727;28;20190;-85
2022/05/06 11:14:37;;;;;;;3.67;2.90;;;;;;;20.89;37.25;97685.75;5046507;28;20222;-83
2022/05/06 11:17:58;;;;;;;5.47;2.80;;;;;;;21.47;37.05;97715.50;5066167;28;20290;-84
2022/05/06 11:21:19;;;;;;;5.07;3.13;;;;;;;21.70;35.55;97696.06;5069347;28;20231;-85
2022/05/06 11:24:48;;;;;;;5.80;3.00;;;;;;;21.30;36.66;97697.53;5036106;28;20220;-84
2022/05/06 11:28:10;;;;;;;6.80;3.73;;;;;;;21.08;37.55;97702.81;5070199;28;20187;-84
2022/05/06 11:31:32;;;;;;;6.07;2.90;;;;;;;21.03;37.89;97689.97;5071907;28;20188;-84
2022/05/06 11:34:55;;;;;;;5.20;2.80;;;;;;;21.11;36.97;97699.91;5074125;28;20194;-84
2022/05/06 11:38:21;;;;;;;5.00;3.07;;;;;;;21.23;37.14;97709.50;5073057;28;20187;-84
2022/05/06 11:41:49;;;;;;;3.77;3.00;;;;;;;21.21;38.06;97692.97;5072319;28;20303;-84
2022/05/06 11:49:01;;;;;;;6.20;3.17;;;;;;;20.77;40.02;97694.56;5071743;28;20184;-84
2022/05/06 11:52:25;;;;;;;6.43;3.00;;;;;;;20.32;40.53;97700.66;5072680;28;20182;-85
2022/05/06 11:55:47;;;;;;;3.83;2.90;;;;;;;20.72;39.94;97694.09;5072613;28;20194;-83
2022/05/06 11:59:08;;;;;;;4.03;3.17;;;;;;;20.99;39.48;97685.88;5069670;28;20191;-85
2022/05/06 12:02:28;;;;;;;3.47;2.63;;;;;;;21.22;38.70;97686.75;5061167;28;20220;-83
2022/05/06 12:05:52;;;;;;;5.90;3.20;;;;;;;21.29;39.69;97685.34;5062076;28;20187;-84
2022/05/06 12:09:13;;;;;;;4.10;2.77;;;;;;;21.21;40.17;97687.69;5058662;28;20189;-84
2022/05/06 12:12:44;;;;;;;6.17;2.90;;;;;;;20.75;40.39;97683.31;5060502;28;20215;-84
2022/05/06 12:16:14;;;;;;;5.70;2.90;;;;;;;20.58;41.08;97677.66;5071926;28;20193;-84
2022/05/06 12:19:36;;;;;;;4.07;3.20;;;;;;;20.82;40.25;97688.94;5107099;28;20209;-83
2022/05/06 12:23:01;;;;;;;10.57;3.87;;;;;;;20.70;41.03;97672.31;5112142;28;20184;-84
2022/05/06 12:26:21;;;;;;;3.77;2.87;;;;;;;21.00;40.14;97669.94;5102780;28;20196;-84
2022/05/06 12:29:43;;;;;;;5.90;2.50;;;;;;;20.90;39.96;97670.78;5105609;28;20245;-84
2022/05/06 12:33:05;;;;;;;5.33;2.90;;;;;;;21.28;39.85;97662.56;5104988;28;20231;-85
2022/05/06 12:36:39;;;;;;;5.80;2.90;;;;;;;21.15;39.09;97659.19;5087112;28;20194;-84
2022/05/06 12:40:04;;;;;;;3.80;2.67;;;;;;;21.15;39.10;97640.75;5092317;28;20193;-85
2022/05/06 12:43:26;;;;;;;4.87;3.23;;;;;;;20.93;40.83;97655.59;5096017;28;20203;-91
2022/05/06 12:46:50;;;;;;;3.10;2.53;;;;;;;21.02;39.13;97643.50;5104166;28;20213;-84
2022/05/06 12:50:17;;;;;;;4.67;2.60;;;;;;;21.20;38.53;97650.00;5098145;28;20195;-91
2022/05/06 12:53:39;;;;;;;7.47;3.10;;;;;;;21.36;39.06;97652.25;5082612;28;20274;-92
2022/05/06 12:57:00;;;;;;;3.77;2.60;;;;;;;21.25;39.17;97646.97;5076228;28;20660;-86
2022/05/06 13:00:21;;;;;;;5.53;2.77;;;;;;;21.49;39.11;97643.25;5033377;28;20317;-91
2022/05/06 13:03:45;;;;;;;4.83;2.97;;;;;;;21.37;39.81;97651.31;5013399;28;20194;-92
2022/05/06 13:07:09;;;;;;;4.63;2.70;;;;;;;21.47;38.81;97639.91;5037049;28;20273;-92
2022/05/06 13:10:30;;;;;;;6.77;2.80;;;;;;;21.70;38.34;97633.59;5029597;28;20756;-90
2022/05/06 13:13:51;;;;;;;6.20;4.53;;;;;;;21.80;37.75;97618.72;5033432;28;20197;-91
2022/05/06 13:17:11;;;;;;;2.70;2.50;;;;;;;21.66;37.65;97631.34;5034640;28;20733;-85
2022/05/06 13:20:33;;;;;;;6.43;2.70;;;;;;;21.88;37.67;97634.78;5007259;28;20223;-87
2022/05/06 13:23:58;;;;;;;4.20;2.90;;;;;;;21.75;38.21;97627.97;5016599;28;20680;-91
2022/05/06 13:27:19;;;;;;;4.07;2.73;;;;;;;21.83;38.90;97609.75;5033119;28;20323;-88
2022/05/06 13:30:39;;;;;;;3.07;2.80;;;;;;;21.52;39.04;97618.44;5028671;28;20211;-88
2022/05/06 13:34:00;;;;;;;4.30;3.10;;;;;;;21.22;39.08;97627.00;5027066;28;20206;-93
2022/05/06 13:37:21;;;;;;;11.03;4.27;;;;;;;21.48;38.90;97617.84;5030642;28;20189;-89
2022/05/06 13:40:46;;;;;;;5.50;3.10;;;;;;;21.42;38.71;97614.88;5077149;28;20217;-85
2022/05/06 13:44:07;;;;;;;18.43;9.33;;;;;;;21.54;38.47;97613.88;5093959;28;20294;-88
2022/05/06 13:47:31;;;;;;;23.43;12.10;;;;;;;21.38;39.31;97601.09;5080311;28;20199;-90
2022/05/06 13:50:51;;;;;;;16.20;6.00;;;;;;;21.28;39.84;97620.41;5106574;28;20178;-87
2022/05/06 13:54:12;;;;;;;7.37;3.90;;;;;;;21.03;39.36;97619.72;5064611;28;20273;-87
2022/05/06 14:00:56;;;;;;;7.53;3.03;;;;;;;21.32;39.05;97603.38;5063250;28;20603;-87
2022/05/06 14:03:23;;;;;;;6.73;4.27;;;;;;;21.63;38.84;97597.31;5063431;28;20238;-90
2022/05/06 14:05:51;;;;;;;4.37;3.20;;;;;;;21.77;38.20;97603.16;5079068;28;20204;-86
2022/05/06 14:08:19;;;;;;;5.00;2.80;;;;;;;21.72;38.05;97578.13;5097648;28;20212;-92
2022/05/06 14:10:47;;;;;;;6.27;3.60;;;;;;;21.73;38.55;97582.44;5103625;28;20181;-92
2022/05/06 14:13:19;;;;;;;4.47;2.93;;;;;;;21.81;38.62;97585.28;5059443;28;20190;-92